Time;durP1;ratioP1;P1;durP2;ratioP2;P2;SDS_P1;SDS_P2;PMS_P1;PMS_P2;Temp;Humidity;BMP_temperature;BMP_pressure;BME280_temperature;BME280_humidity;BME280_pressure;Samples;Min_cycle;Max_cycle;Signal;HPM_P1;HPM_P2
2022/12/30 00:02:05;;;;;;;7.80;2.10;;;7.10;1.00;;;;;;5065233;28;20556;-79
2022/12/30 00:04:31;;;;;;;8.93;2.00;;;7.10;1.00;;;;;;5066401;28;20193;-76
2022/12/30 00:06:56;;;;;;;4.80;1.43;;;7.10;1.00;;;;;;5065676;28;20247;-79
2022/12/30 00:09:22;;;;;;;5.13;1.07;;;6.80;1.00;;;;;;5066454;28;21008;-78
2022/12/30 00:11:47;;;;;;;9.50;1.90;;;7.10;1.00;;;;;;5065901;28;20583;-79
2022/12/30 00:34:28;;;;;;;6.47;2.10;;;7.30;1.00;;;;;;5071225;28;20188;-82
2022/12/30 00:36:54;;;;;;;9.93;1.97;;;7.30;1.00;;;;;;5068082;28;20185;-78
2022/12/30 00:39:21;;;;;;;7.13;2.00;;;7.30;1.00;;;;;;5085523;28;20208;-77
2022/12/30 00:44:30;;;;;;;10.20;2.67;;;7.40;1.00;;;;;;5069832;28;20221;-78
2022/12/30 00:46:56;;;;;;;8.40;1.90;;;7.40;1.00;;;;;;5068385;28;20208;-79
2022/12/30 00:57:35;;;;;;;7.60;1.67;;;7.40;1.00;;;;;;5069892;28;20588;-77
2022/12/30 01:00:01;;;;;;;6.83;1.80;;;7.40;1.00;;;;;;5069985;28;20194;-78
2022/12/30 01:02:26;;;;;;;10.57;2.43;;;7.40;1.00;;;;;;5068376;28;20679;-79
2022/12/30 01:04:53;;;;;;;6.30;2.10;;;7.40;1.00;;;;;;5067785;28;20658;-77
2022/12/30 01:07:19;;;;;;;9.20;2.13;;;7.40;1.00;;;;;;5069793;28;20243;-79
2022/12/30 01:09:44;;;;;;;7.60;1.73;;;7.50;1.00;;;;;;5068855;28;20205;-80
2022/12/30 01:12:10;;;;;;;5.77;1.93;;;7.40;1.00;;;;;;5067478;28;20274;-76
2022/12/30 01:14:39;;;;;;;11.40;2.00;;;7.40;1.00;;;;;;5068359;28;20531;-78
2022/12/30 01:17:06;;;;;;;7.70;2.23;;;7.40;1.00;;;;;;5068922;28;20606;-79
2022/12/30 01:19:31;;;;;;;6.37;1.57;;;7.50;1.00;;;;;;5068155;28;20948;-77
2022/12/30 01:21:57;;;;;;;9.87;1.90;;;7.50;1.00;;;;;;5069818;28;20212;-77
2022/12/30 01:24:23;;;;;;;10.77;2.57;;;7.50;1.00;;;;;;5067388;28;20221;-80
2022/12/30 01:26:49;;;;;;;6.90;1.90;;;7.50;1.00;;;;;;5068604;28;20184;-77
2022/12/30 01:29:28;;;;;;;6.20;1.63;;;7.50;1.00;;;;;;5068780;28;20209;-80
2022/12/30 01:31:55;;;;;;;6.43;2.17;;;7.50;1.00;;;;;;5084225;28;20573;-79
2022/12/30 01:34:21;;;;;;;7.37;1.80;;;7.50;1.00;;;;;;5068702;28;20238;-77
2022/12/30 01:36:46;;;;;;;5.27;1.77;;;7.50;1.00;;;;;;5068634;28;20647;-78
2022/12/30 01:39:12;;;;;;;11.80;2.20;;;7.50;1.00;;;;;;5068044;28;20216;-77
2022/12/30 01:41:38;;;;;;;9.40;1.97;;;7.50;1.00;;;;;;5067249;28;20644;-80
2022/12/30 01:44:41;;;;;;;12.07;2.27;;;7.50;1.00;;;;;;5064832;28;20281;-80
2022/12/30 01:47:10;;;;;;;7.63;2.03;;;7.40;1.00;;;;;;5068395;28;20193;-77
2022/12/30 01:49:40;;;;;;;8.07;2.40;;;7.40;1.00;;;;;;5069149;28;20197;-80
2022/12/30 01:52:06;;;;;;;9.83;2.57;;;7.40;1.00;;;;;;5067914;28;20300;-80
2022/12/30 01:54:33;;;;;;;6.27;1.87;;;7.40;1.00;;;;;;5067047;28;20710;-77
2022/12/30 01:56:59;;;;;;;5.70;1.70;;;7.30;1.00;;;;;;5067977;28;20615;-77
2022/12/30 01:59:26;;;;;;;8.03;1.80;;;7.40;1.00;;;;;;5066897;28;20221;-78
2022/12/30 02:01:51;;;;;;;7.70;2.17;;;7.40;1.00;;;;;;5066976;28;20198;-77
2022/12/30 02:04:24;;;;;;;8.77;2.13;;;7.40;1.00;;;;;;5069160;28;20188;-79
2022/12/30 02:07:05;;;;;;;8.60;1.93;;;7.40;1.00;;;;;;5067669;28;20639;-77
2022/12/30 02:09:32;;;;;;;6.83;1.70;;;7.40;1.00;;;;;;5065925;28;20259;-77
2022/12/30 02:11:59;;;;;;;8.10;1.80;;;7.40;1.00;;;;;;5067954;28;20213;-80
2022/12/30 02:14:27;;;;;;;8.43;2.27;;;7.40;1.00;;;;;;5066401;28;20300;-78
2022/12/30 02:17:12;;;;;;;7.97;2.30;;;7.40;1.00;;;;;;5066763;28;20212;-79
2022/12/30 02:19:50;;;;;;;10.03;2.10;;;7.40;1.00;;;;;;5066439;28;20208;-79
2022/12/30 02:22:41;;;;;;;7.93;1.70;;;7.40;1.00;;;;;;5066308;28;20185;-78
2022/12/30 02:25:18;;;;;;;7.87;2.20;;;7.50;1.00;;;;;;5067651;28;20223;-79
2022/12/30 02:28:18;;;;;;;10.70;2.10;;;7.50;1.00;;;;;;5067505;28;20174;-78
2022/12/30 02:31:19;;;;;;;8.07;2.00;;;7.40;1.00;;;;;;5067415;28;20186;-78
2022/12/30 02:34:02;;;;;;;7.47;1.70;;;7.40;1.00;;;;;;5067507;28;20177;-80
2022/12/30 02:36:50;;;;;;;8.50;2.17;;;7.40;1.00;;;;;;5066810;28;20381;-80
2022/12/30 02:39:36;;;;;;;7.27;2.00;;;7.40;1.00;;;;;;5066673;28;20282;-80
2022/12/30 02:45:37;;;;;;;8.73;2.03;;;7.40;1.00;;;;;;5066262;28;20254;-77
2022/12/30 02:48:14;;;;;;;5.90;1.77;;;7.40;1.00;;;;;;5061267;28;20193;-77
2022/12/30 02:53:29;;;;;;;6.07;1.73;;;7.30;1.00;;;;;;5066802;28;20769;-77
2022/12/30 02:55:55;;;;;;;6.77;1.80;;;7.30;1.00;;;;;;5065995;28;20196;-77
2022/12/30 02:58:23;;;;;;;6.63;1.80;;;7.30;1.00;;;;;;5066231;28;20201;-79
2022/12/30 03:04:04;;;;;;;8.57;2.17;;;7.20;1.00;;;;;;5066418;28;20242;-78
2022/12/30 03:07:02;;;;;;;7.67;1.90;;;7.10;1.00;;;;;;5057062;28;20186;-78
2022/12/30 03:13:09;;;;;;;8.60;2.53;;;7.10;1.00;;;;;;5066211;28;20360;-76
2022/12/30 03:15:42;;;;;;;5.93;1.80;;;7.00;1.00;;;;;;5058564;28;20242;-77
2022/12/30 03:18:10;;;;;;;8.53;1.73;;;7.00;1.00;;;;;;5065436;28;20198;-78
2022/12/30 03:20:39;;;;;;;6.57;1.70;;;7.00;1.00;;;;;;5064390;28;20181;-77
2022/12/30 03:28:40;;;;;;;8.90;2.00;;;6.90;1.00;;;;;;5066115;28;20648;-79
2022/12/30 03:31:11;;;;;;;7.10;2.00;;;6.80;1.00;;;;;;5066050;28;20181;-78
2022/12/30 03:33:38;;;;;;;7.87;2.17;;;6.80;1.00;;;;;;5066016;28;20602;-78
2022/12/30 03:36:26;;;;;;;11.17;2.30;;;6.80;1.00;;;;;;5064309;28;20217;-78
2022/12/30 03:39:05;;;;;;;8.93;2.37;;;6.70;1.00;;;;;;5064376;28;20764;-77
2022/12/30 03:41:32;;;;;;;6.03;2.00;;;6.70;1.00;;;;;;5055437;28;20568;-77
2022/12/30 03:43:57;;;;;;;8.97;2.10;;;6.70;1.00;;;;;;5064703;28;20651;-78
2022/12/30 03:46:44;;;;;;;7.00;2.37;;;6.70;1.00;;;;;;5064349;28;20189;-77
2022/12/30 03:49:09;;;;;;;13.17;2.80;;;6.60;1.00;;;;;;5065984;28;20205;-77
2022/12/30 03:51:35;;;;;;;9.47;1.90;;;6.60;1.00;;;;;;5064475;28;20733;-78
2022/12/30 03:54:00;;;;;;;5.73;1.57;;;6.50;1.00;;;;;;5062540;28;21172;-78
2022/12/30 03:56:26;;;;;;;10.43;1.93;;;6.50;1.00;;;;;;5063775;28;20238;-78
2022/12/30 03:58:52;;;;;;;8.33;1.80;;;6.50;1.00;;;;;;5066346;28;20205;-77
2022/12/30 04:01:17;;;;;;;6.63;1.97;;;6.50;1.00;;;;;;5066288;28;20182;-78
2022/12/30 04:03:43;;;;;;;6.40;2.00;;;6.40;1.00;;;;;;5064450;28;20182;-78
2022/12/30 04:06:08;;;;;;;8.73;1.70;;;6.50;1.00;;;;;;5065324;28;20187;-78
2022/12/30 04:08:34;;;;;;;6.17;1.83;;;6.40;1.00;;;;;;5065771;28;20232;-78
2022/12/30 04:10:59;;;;;;;6.27;1.80;;;6.50;1.00;;;;;;5065845;28;20208;-78
2022/12/30 04:13:25;;;;;;;8.17;2.17;;;6.50;1.00;;;;;;5065495;28;20793;-76
2022/12/30 04:15:51;;;;;;;6.97;2.20;;;6.50;1.00;;;;;;5064244;28;20186;-80
2022/12/30 04:18:18;;;;;;;8.50;2.00;;;6.50;1.00;;;;;;5063134;28;20225;-80
2022/12/30 04:20:45;;;;;;;8.93;2.20;;;6.50;1.00;;;;;;5065798;28;20181;-78
2022/12/30 04:23:11;;;;;;;6.20;1.70;;;6.50;1.00;;;;;;5065761;28;20182;-78
2022/12/30 04:25:36;;;;;;;7.57;2.70;;;6.40;1.00;;;;;;5063710;28;20243;-77
2022/12/30 04:28:02;;;;;;;7.70;2.13;;;6.40;1.00;;;;;;5065485;28;20686;-79
2022/12/30 04:30:28;;;;;;;7.37;1.70;;;6.40;1.00;;;;;;5065818;28;20748;-78
2022/12/30 04:32:53;;;;;;;5.93;1.90;;;6.40;1.00;;;;;;5065713;28;20237;-78
2022/12/30 04:35:19;;;;;;;8.63;2.23;;;6.30;1.00;;;;;;5063924;28;20173;-78
2022/12/30 04:37:48;;;;;;;6.67;1.83;;;6.30;1.00;;;;;;5064190;28;20663;-78
2022/12/30 04:40:14;;;;;;;6.77;2.33;;;6.20;1.00;;;;;;5065571;28;20268;-79
2022/12/30 04:42:39;;;;;;;6.60;1.80;;;6.20;1.00;;;;;;5063854;28;20268;-77
2022/12/30 04:45:05;;;;;;;9.87;2.13;;;6.10;1.00;;;;;;5064382;28;20178;-78
2022/12/30 04:47:31;;;;;;;8.43;2.60;;;6.10;1.00;;;;;;5064645;28;20238;-78
2022/12/30 04:49:56;;;;;;;10.77;2.17;;;6.10;1.00;;;;;;5063675;28;20201;-78
2022/12/30 04:52:22;;;;;;;7.47;1.90;;;6.00;1.00;;;;;;5063134;28;20213;-78
2022/12/30 04:54:47;;;;;;;7.73;2.97;;;5.90;1.00;;;;;;5065539;28;20260;-79
2022/12/30 04:57:13;;;;;;;10.50;1.70;;;6.00;1.00;;;;;;5064197;28;20221;-78
2022/12/30 04:59:39;;;;;;;9.50;2.40;;;6.00;1.00;;;;;;5066572;28;20197;-77
2022/12/30 05:02:04;;;;;;;9.97;2.57;;;6.00;1.00;;;;;;5068335;28;20193;-77
2022/12/30 05:04:30;;;;;;;7.03;2.20;;;5.90;1.00;;;;;;5067446;28;20185;-78
2022/12/30 05:06:55;;;;;;;5.30;1.80;;;5.90;1.00;;;;;;5067967;28;20189;-78
2022/12/30 05:09:21;;;;;;;10.97;2.23;;;5.80;1.00;;;;;;5068722;28;20584;-79
2022/12/30 05:11:46;;;;;;;6.27;2.23;;;5.70;1.00;;;;;;5066946;28;20214;-77
2022/12/30 05:14:12;;;;;;;7.53;1.83;;;5.60;1.00;;;;;;5067478;28;20193;-78
2022/12/30 05:16:37;;;;;;;9.03;2.10;;;5.50;9.50;;;;;;5067964;28;20182;-80
2022/12/30 05:19:03;;;;;;;10.97;2.30;;;5.40;15.00;;;;;;5066709;28;20202;-79
2022/12/30 05:21:29;;;;;;;8.47;2.63;;;5.30;28.30;;;;;;5067422;28;20190;-77
2022/12/30 05:26:38;;;;;;;6.73;2.30;;;5.20;55.80;;;;;;5067699;28;20200;-78
2022/12/30 05:29:04;;;;;;;6.33;2.40;;;5.20;91.20;;;;;;5066634;28;20308;-78
2022/12/30 05:31:29;;;;;;;9.13;2.13;;;5.10;99.90;;;;;;5061923;28;20213;-78
2022/12/30 05:33:55;;;;;;;11.10;2.27;;;5.00;99.90;;;;;;5063494;28;20557;-77
2022/12/30 05:36:20;;;;;;;7.07;2.00;;;5.00;99.90;;;;;;5067152;28;20193;-77
2022/12/30 05:38:46;;;;;;;9.20;2.13;;;4.90;99.90;;;;;;5067791;28;20212;-79
2022/12/30 05:41:12;;;;;;;11.37;2.20;;;4.80;99.90;;;;;;5066284;28;20190;-79
2022/12/30 05:43:37;;;;;;;9.10;2.17;;;4.70;99.90;;;;;;5062740;28;20429;-79
2022/12/30 05:46:03;;;;;;;10.40;2.13;;;4.70;99.90;;;;;;5066358;28;20186;-77
2022/12/30 05:48:29;;;;;;;8.47;1.60;;;4.80;99.90;;;;;;5066570;28;20876;-79
2022/12/30 05:50:54;;;;;;;9.53;1.97;;;5.00;99.90;;;;;;5066121;28;20218;-79
2022/12/30 05:53:20;;;;;;;7.67;1.80;;;5.20;81.20;;;;;;5060756;28;20202;-79
2022/12/30 05:55:46;;;;;;;10.53;2.30;;;5.40;49.40;;;;;;5064454;28;20273;-78
2022/12/30 05:58:11;;;;;;;8.90;2.00;;;5.50;33.10;;;;;;5067818;28;20205;-78
2022/12/30 06:00:38;;;;;;;8.13;2.10;;;5.50;41.10;;;;;;5067797;28;20192;-78
2022/12/30 06:03:03;;;;;;;7.00;2.10;;;5.60;8.40;;;;;;5066214;28;20196;-77
2022/12/30 06:05:29;;;;;;;6.87;1.70;;;5.70;6.00;;;;;;5067539;28;20189;-78
2022/12/30 06:07:55;;;;;;;9.47;2.00;;;5.70;6.30;;;;;;5066923;28;20196;-80
2022/12/30 06:10:21;;;;;;;8.77;1.90;;;5.90;1.00;;;;;;5067530;28;20193;-78
2022/12/30 06:12:47;;;;;;;13.70;2.80;;;5.90;1.00;;;;;;5066994;28;20221;-80
2022/12/30 06:15:12;;;;;;;11.17;2.10;;;5.90;1.00;;;;;;5066043;28;20185;-80
2022/12/30 06:17:38;;;;;;;10.80;1.90;;;5.90;1.00;;;;;;5066910;28;20185;-77
2022/12/30 06:20:04;;;;;;;14.43;2.50;;;5.90;1.00;;;;;;5067781;28;20205;-80
2022/12/30 06:22:30;;;;;;;7.63;1.60;;;5.90;1.00;;;;;;5065222;28;20186;-78
2022/12/30 06:24:55;;;;;;;9.47;1.87;;;5.90;1.00;;;;;;5067789;28;20272;-77
2022/12/30 06:27:21;;;;;;;7.73;1.93;;;5.80;1.00;;;;;;5067032;28;20201;-78
2022/12/30 06:29:47;;;;;;;7.30;1.40;;;5.80;1.00;;;;;;5067856;28;20286;-78
2022/12/30 06:32:12;;;;;;;7.17;2.07;;;5.90;1.00;;;;;;5067364;28;20204;-79
2022/12/30 06:34:38;;;;;;;6.93;1.83;;;5.90;1.00;;;;;;5066757;28;20201;-77
2022/12/30 06:37:03;;;;;;;8.57;1.73;;;5.90;1.00;;;;;;5066819;28;20186;-79
2022/12/30 06:39:29;;;;;;;4.93;1.67;;;5.80;1.00;;;;;;5068603;28;20209;-81
2022/12/30 06:41:54;;;;;;;7.43;1.60;;;5.80;1.00;;;;;;5064795;28;20743;-79
2022/12/30 06:44:20;;;;;;;7.17;1.77;;;5.80;1.00;;;;;;5066118;28;20200;-77
2022/12/30 06:46:45;;;;;;;7.73;1.77;;;5.80;1.00;;;;;;5065289;28;20535;-77
2022/12/30 06:49:11;;;;;;;8.90;1.93;;;5.80;1.00;;;;;;5067109;28;21097;-77
2022/12/30 06:51:36;;;;;;;7.73;1.50;;;5.80;1.00;;;;;;5065336;28;20236;-78
2022/12/30 06:54:02;;;;;;;8.40;1.63;;;5.70;1.00;;;;;;5067011;28;20613;-79
2022/12/30 06:56:28;;;;;;;7.70;2.00;;;5.70;1.00;;;;;;5065153;28;20221;-78
2022/12/30 06:58:53;;;;;;;8.83;1.80;;;5.80;1.00;;;;;;5064180;28;20212;-77
2022/12/30 07:01:19;;;;;;;5.57;1.33;;;5.80;1.00;;;;;;5066740;28;20208;-78
2022/12/30 07:03:44;;;;;;;8.30;1.60;;;5.80;1.00;;;;;;5066397;28;20173;-79
2022/12/30 07:06:10;;;;;;;7.13;2.20;;;5.80;1.00;;;;;;5066148;28;20227;-78
2022/12/30 07:08:35;;;;;;;6.47;1.93;;;5.80;1.00;;;;;;5064912;28;20300;-77
2022/12/30 07:11:01;;;;;;;7.10;1.50;;;5.80;1.00;;;;;;5066726;28;20273;-78
2022/12/30 07:13:28;;;;;;;7.17;1.97;;;5.80;1.00;;;;;;5064734;28;20695;-78
2022/12/30 07:15:53;;;;;;;5.07;1.17;;;5.80;1.00;;;;;;5065714;28;20189;-78
2022/12/30 07:18:19;;;;;;;10.70;2.57;;;5.90;1.00;;;;;;5066715;28;20205;-79
2022/12/30 07:20:45;;;;;;;9.03;2.43;;;5.90;1.00;;;;;;5065603;28;20186;-79
2022/12/30 07:23:10;;;;;;;6.43;1.70;;;5.90;1.00;;;;;;5064705;28;20270;-78
2022/12/30 07:25:36;;;;;;;6.80;2.03;;;5.90;1.00;;;;;;5065140;28;20213;-77
2022/12/30 07:28:03;;;;;;;8.17;1.87;;;5.90;1.00;;;;;;5065320;28;20194;-81
2022/12/30 07:30:30;;;;;;;6.87;1.57;;;5.80;1.00;;;;;;5065194;28;20255;-78
2022/12/30 07:32:56;;;;;;;8.63;2.10;;;5.80;1.00;;;;;;5065775;28;20217;-76
2022/12/30 07:35:22;;;;;;;8.30;1.80;;;5.70;1.00;;;;;;5066171;28;20285;-80
2022/12/30 07:37:48;;;;;;;4.80;1.43;;;5.70;1.00;;;;;;5065737;28;20206;-78
2022/12/30 07:40:14;;;;;;;6.30;1.67;;;5.70;1.00;;;;;;5064451;28;20235;-77
2022/12/30 07:42:41;;;;;;;4.50;1.60;;;5.60;1.00;;;;;;5064707;28;20185;-78
2022/12/30 07:45:07;;;;;;;9.87;1.70;;;5.70;1.00;;;;;;5066032;28;20181;-77
2022/12/30 07:47:33;;;;;;;7.93;2.07;;;5.70;1.00;;;;;;5060208;28;20200;-78
2022/12/30 07:50:00;;;;;;;5.50;1.90;;;5.70;1.00;;;;;;5064142;28;20722;-79
2022/12/30 07:52:27;;;;;;;6.47;1.80;;;5.70;1.00;;;;;;5065227;28;20220;-77
2022/12/30 07:54:52;;;;;;;6.80;1.77;;;5.60;1.00;;;;;;5061193;28;20189;-79
2022/12/30 07:57:18;;;;;;;6.77;3.23;;;5.60;1.40;;;;;;5057268;28;20984;-78
2022/12/30 07:59:43;;;;;;;6.27;1.80;;;5.60;19.70;;;;;;5063277;28;20279;-77
2022/12/30 08:02:12;;;;;;;10.77;1.97;;;5.60;1.00;;;;;;5056926;28;20193;-77
2022/12/30 08:04:38;;;;;;;20.00;14.20;;;5.70;5.00;;;;;;5065118;28;20206;-76
2022/12/30 08:07:04;;;;;;;8.50;2.20;;;5.70;1.00;;;;;;5066341;28;20228;-77
2022/12/30 08:09:29;;;;;;;8.33;1.90;;;5.70;1.90;;;;;;5064680;28;20220;-79
2022/12/30 08:11:55;;;;;;;7.67;1.60;;;5.80;1.00;;;;;;5064039;28;20300;-77
2022/12/30 08:14:20;;;;;;;8.00;1.93;;;5.90;1.00;;;;;;5066253;28;20193;-77
2022/12/30 08:16:46;;;;;;;9.53;2.63;;;5.80;1.00;;;;;;5065412;28;20910;-77
2022/12/30 08:19:11;;;;;;;9.27;1.90;;;5.80;1.00;;;;;;5064769;28;20251;-78
2022/12/30 08:21:37;;;;;;;8.23;1.93;;;5.70;1.00;;;;;;5063983;28;20181;-77
2022/12/30 08:24:03;;;;;;;9.40;2.63;;;5.80;1.00;;;;;;5065068;28;20268;-78
2022/12/30 08:26:29;;;;;;;8.47;2.67;;;5.80;1.00;;;;;;5063096;28;20258;-76
2022/12/30 08:28:55;;;;;;;8.97;1.93;;;5.90;1.00;;;;;;5065473;28;20663;-79
2022/12/30 08:31:26;;;;;;;5.83;1.60;;;5.90;1.00;;;;;;5063595;28;20194;-78
2022/12/30 08:33:52;;;;;;;10.93;2.60;;;5.90;1.00;;;;;;5055726;28;20540;-79
2022/12/30 08:36:21;;;;;;;7.73;2.07;;;5.90;1.00;;;;;;5066320;28;20209;-79
2022/12/30 08:38:49;;;;;;;4.23;1.50;;;5.90;1.00;;;;;;5064891;28;20236;-83
2022/12/30 08:41:24;;;;;;;7.47;1.90;;;6.00;1.00;;;;;;5066437;28;20201;-80
2022/12/30 08:43:51;;;;;;;6.17;1.57;;;6.00;1.00;;;;;;5066524;28;20193;-80
2022/12/30 08:46:18;;;;;;;9.53;2.00;;;6.00;1.00;;;;;;5060120;28;20788;-79
2022/12/30 08:48:43;;;;;;;7.80;1.50;;;6.00;1.00;;;;;;5069486;28;20231;-78
2022/12/30 08:51:10;;;;;;;5.73;1.60;;;6.00;1.00;;;;;;5067238;28;20208;-79
2022/12/30 08:53:35;;;;;;;11.30;2.13;;;6.10;1.00;;;;;;5069599;28;20638;-79
2022/12/30 08:56:20;;;;;;;5.27;1.37;;;6.20;1.00;;;;;;5069498;28;20220;-77
2022/12/30 08:58:47;;;;;;;4.70;1.37;;;6.20;1.00;;;;;;5069957;28;20212;-78
2022/12/30 09:01:16;;;;;;;7.83;1.80;;;6.30;1.00;;;;;;5067891;28;20549;-76
2022/12/30 09:03:42;;;;;;;6.60;1.57;;;6.20;1.00;;;;;;5069965;28;20858;-76
2022/12/30 09:06:09;;;;;;;6.47;1.97;;;6.20;1.00;;;;;;5068791;28;20561;-79
2022/12/30 09:08:35;;;;;;;6.07;1.80;;;6.20;1.00;;;;;;5072707;28;20232;-75
2022/12/30 09:11:05;;;;;;;11.20;1.77;;;6.20;1.00;;;;;;5069614;28;20563;-78
2022/12/30 09:13:31;;;;;;;10.27;2.07;;;6.30;1.00;;;;;;5069785;28;20328;-79
2022/12/30 09:15:56;;;;;;;7.37;1.70;;;6.40;1.00;;;;;;5071560;28;20190;-78
2022/12/30 09:18:22;;;;;;;6.57;1.70;;;6.50;1.00;;;;;;5067342;28;20659;-79
2022/12/30 09:20:48;;;;;;;11.17;2.03;;;6.60;1.00;;;;;;5064104;28;20177;-76
2022/12/30 09:23:15;;;;;;;7.90;1.63;;;6.60;1.00;;;;;;5058983;28;20190;-77
2022/12/30 09:25:41;;;;;;;7.50;1.97;;;6.60;1.00;;;;;;5066108;28;20678;-77
2022/12/30 09:28:06;;;;;;;6.87;1.70;;;6.60;1.00;;;;;;5071625;28;20193;-76
2022/12/30 09:30:32;;;;;;;5.47;1.87;;;6.70;1.00;;;;;;5072414;28;20818;-77
2022/12/30 09:32:57;;;;;;;9.03;1.73;;;6.70;1.00;;;;;;5069261;28;20562;-77
2022/12/30 09:35:23;;;;;;;8.03;1.33;;;6.70;1.00;;;;;;5067169;28;20184;-79
2022/12/30 09:37:48;;;;;;;5.63;1.53;;;6.70;1.00;;;;;;5066592;28;20225;-76
2022/12/30 09:40:18;;;;;;;7.57;1.80;;;6.70;1.00;;;;;;5066403;28;20181;-80
2022/12/30 09:46:06;;;;;;;7.47;1.63;;;6.80;1.00;;;;;;5068061;28;20192;-79
2022/12/30 09:48:39;;;;;;;3.90;1.13;;;6.80;1.00;;;;;;5057928;28;20290;-77
2022/12/30 09:51:10;;;;;;;7.30;1.53;;;6.90;1.00;;;;;;5070691;28;20223;-78
2022/12/30 09:53:55;;;;;;;5.53;1.63;;;6.90;1.00;;;;;;5071073;28;20224;-76
2022/12/30 09:56:30;;;;;;;6.37;1.70;;;7.00;1.00;;;;;;5068092;28;20242;-79
2022/12/30 09:58:59;;;;;;;8.50;1.60;;;7.00;1.00;;;;;;5067878;28;20208;-77
2022/12/30 10:01:43;;;;;;;6.70;2.03;;;7.00;1.00;;;;;;5068091;28;20185;-77
2022/12/30 10:04:18;;;;;;;6.20;1.37;;;7.20;1.00;;;;;;5066951;28;20185;-77
2022/12/30 10:07:02;;;;;;;4.63;1.40;;;7.20;1.00;;;;;;5069102;28;20181;-78
2022/12/30 10:09:55;;;;;;;4.50;1.77;;;7.30;1.00;;;;;;5068671;28;20202;-76
2022/12/30 10:12:36;;;;;;;6.60;1.80;;;7.30;1.00;;;;;;5069239;28;20216;-77
2022/12/30 10:15:26;;;;;;;5.30;1.80;;;7.40;1.00;;;;;;5071914;28;20635;-77
2022/12/30 10:18:00;;;;;;;5.70;1.60;;;7.40;1.00;;;;;;5065302;28;20193;-78
2022/12/30 10:21:05;;;;;;;6.90;1.90;;;7.40;1.00;;;;;;5062961;28;20564;-80
2022/12/30 10:24:07;;;;;;;7.37;1.37;;;7.40;1.00;;;;;;5065639;28;20185;-77
2022/12/30 10:26:42;;;;;;;5.80;1.50;;;7.50;1.00;;;;;;5064312;28;20215;-80
2022/12/30 10:29:13;;;;;;;4.90;1.33;;;7.50;1.00;;;;;;5064111;28;20213;-79
2022/12/30 10:31:40;;;;;;;6.73;2.17;;;7.60;1.00;;;;;;5061245;28;20851;-78
2022/12/30 10:34:16;;;;;;;9.73;1.80;;;7.60;1.00;;;;;;5066112;28;20650;-77
2022/12/30 10:37:01;;;;;;;6.27;2.67;;;7.70;1.00;;;;;;5065158;28;20193;-78
2022/12/30 10:39:45;;;;;;;4.73;1.57;;;7.70;1.00;;;;;;5066175;28;20201;-77
2022/12/30 10:42:16;;;;;;;4.97;1.27;;;7.80;1.00;;;;;;5065059;28;20196;-79
2022/12/30 10:45:12;;;;;;;6.63;1.80;;;7.80;1.00;;;;;;5064589;28;20182;-78
2022/12/30 10:47:52;;;;;;;4.93;1.30;;;7.80;1.00;;;;;;5064451;28;20450;-79
2022/12/30 10:50:40;;;;;;;6.10;1.80;;;7.90;1.00;;;;;;5064640;28;20189;-78
2022/12/30 10:53:13;;;;;;;5.97;1.70;;;8.00;1.00;;;;;;5064803;28;20286;-79
2022/12/30 10:55:58;;;;;;;5.40;1.60;;;8.00;1.00;;;;;;5064891;28;20185;-77
2022/12/30 10:58:43;;;;;;;6.77;2.20;;;8.00;1.00;;;;;;5065115;28;20209;-79
2022/12/30 11:01:15;;;;;;;4.90;2.23;;;8.00;1.00;;;;;;5063478;28;20188;-77
2022/12/30 11:03:45;;;;;;;4.27;1.20;;;8.10;1.00;;;;;;5063494;28;20272;-83
2022/12/30 11:06:29;;;;;;;6.70;1.47;;;8.20;1.00;;;;;;5063513;28;21006;-80
2022/12/30 11:09:13;;;;;;;5.77;1.50;;;8.20;1.00;;;;;;5064181;28;20346;-78
2022/12/30 11:14:44;;;;;;;6.77;1.43;;;8.20;1.00;;;;;;5065788;28;20554;-77
2022/12/30 11:17:16;;;;;;;4.87;1.20;;;8.20;1.00;;;;;;5060475;28;20217;-78
2022/12/30 11:20:01;;;;;;;4.83;1.30;;;8.20;1.00;;;;;;5060525;28;20765;-78
2022/12/30 11:22:28;;;;;;;7.67;2.27;;;8.20;1.00;;;;;;5064373;28;20263;-79
2022/12/30 11:25:24;;;;;;;4.60;1.63;;;8.20;1.00;;;;;;5063936;28;20197;-78
2022/12/30 11:27:53;;;;;;;6.00;1.73;;;8.20;1.00;;;;;;5064585;28;20239;-79
2022/12/30 11:30:54;;;;;;;7.77;1.70;;;8.20;1.00;;;;;;5064645;28;20675;-81
2022/12/30 11:33:27;;;;;;;6.23;1.77;;;8.30;1.00;;;;;;5066711;28;20243;-78
2022/12/30 11:35:52;;;;;;;5.30;1.20;;;8.30;1.00;;;;;;5065418;28;20193;-78
2022/12/30 11:38:32;;;;;;;2.80;1.30;;;8.30;1.00;;;;;;5065450;28;20205;-78
2022/12/30 11:41:20;;;;;;;4.80;1.37;;;8.30;1.00;;;;;;5064965;28;20272;-79
2022/12/30 11:43:59;;;;;;;5.93;1.67;;;8.40;1.00;;;;;;5067546;28;20186;-80
2022/12/30 11:46:33;;;;;;;3.33;1.47;;;8.40;1.00;;;;;;5067597;28;20265;-80
2022/12/30 11:49:02;;;;;;;4.37;1.93;;;8.40;1.00;;;;;;5064378;28;20217;-80
2022/12/30 11:51:41;;;;;;;5.47;1.80;;;8.50;1.00;;;;;;5064791;28;20205;-79
2022/12/30 11:54:10;;;;;;;4.03;1.43;;;8.50;1.00;;;;;;5065003;28;20236;-79
2022/12/30 11:56:54;;;;;;;4.50;1.33;;;8.50;1.00;;;;;;5063611;28;20173;-80
2022/12/30 11:59:25;;;;;;;4.03;1.50;;;8.60;1.00;;;;;;5065648;28;20595;-79
2022/12/30 12:02:15;;;;;;;3.30;1.20;;;8.60;1.00;;;;;;5064784;28;20185;-79
2022/12/30 12:04:41;;;;;;;3.03;1.47;;;8.60;1.00;;;;;;5065307;28;20238;-78
2022/12/30 12:07:38;;;;;;;3.63;1.33;;;8.60;1.00;;;;;;5064749;28;20186;-78
2022/12/30 12:10:19;;;;;;;3.67;1.30;;;8.60;1.00;;;;;;5069511;28;20221;-78
2022/12/30 12:12:51;;;;;;;3.33;1.10;;;8.50;1.00;;;;;;5069498;28;20262;-78
2022/12/30 12:15:43;;;;;;;5.10;1.30;;;8.60;1.00;;;;;;5068511;28;20681;-78
2022/12/30 12:18:26;;;;;;;3.30;1.30;;;8.60;1.00;;;;;;5068332;28;20266;-79
2022/12/30 12:21:19;;;;;;;4.40;1.43;;;8.60;1.00;;;;;;5068363;28;20186;-78
2022/12/30 12:24:03;;;;;;;4.90;1.20;;;8.60;1.00;;;;;;5068535;28;20185;-78
2022/12/30 12:26:36;;;;;;;3.23;1.30;;;8.60;1.00;;;;;;5058493;28;20197;-76
2022/12/30 12:29:02;;;;;;;2.33;1.00;;;8.60;1.00;;;;;;5064703;28;20215;-80
2022/12/30 12:31:51;;;;;;;5.23;1.57;;;8.60;1.00;;;;;;5068499;28;20185;-80
2022/12/30 12:34:23;;;;;;;4.00;1.30;;;8.50;1.00;;;;;;5068041;28;20666;-81
2022/12/30 12:37:07;;;;;;;4.20;1.00;;;8.50;1.00;;;;;;5064561;28;20193;-80
2022/12/30 12:39:58;;;;;;;3.77;1.40;;;8.50;1.00;;;;;;5067842;28;20201;-77
2022/12/30 12:42:59;;;;;;;3.73;1.20;;;8.40;1.00;;;;;;5069502;28;20192;-77
2022/12/30 12:45:24;;;;;;;3.37;1.30;;;8.30;1.00;;;;;;5069003;28;20193;-79
2022/12/30 12:48:14;;;;;;;5.13;1.77;;;8.30;1.00;;;;;;5068648;28;20186;-78
2022/12/30 12:51:05;;;;;;;8.23;1.97;;;8.30;1.00;;;;;;5067707;28;20187;-78
2022/12/30 12:53:52;;;;;;;4.27;1.73;;;8.20;1.00;;;;;;5069783;28;20201;-78
2022/12/30 12:56:53;;;;;;;3.00;1.10;;;8.20;1.00;;;;;;5066799;28;20185;-79
2022/12/30 12:59:45;;;;;;;4.53;1.20;;;8.20;1.00;;;;;;5068489;28;20205;-78
2022/12/30 13:02:46;;;;;;;4.47;1.50;;;8.20;1.00;;;;;;5067198;28;20221;-77
2022/12/30 13:05:19;;;;;;;9.37;2.03;;;8.10;1.00;;;;;;5068994;28;20552;-78
2022/12/30 13:08:03;;;;;;;5.90;1.40;;;8.00;1.00;;;;;;5067834;28;20186;-78
2022/12/30 13:10:44;;;;;;;3.37;1.27;;;7.90;1.00;;;;;;5066763;28;20193;-78
2022/12/30 13:13:19;;;;;;;3.03;1.07;;;7.90;1.00;;;;;;5063652;28;20216;-77
2022/12/30 13:16:00;;;;;;;6.77;2.03;;;7.90;1.00;;;;;;5057569;28;20192;-77
2022/12/30 13:18:27;;;;;;;9.53;5.10;;;7.90;1.00;;;;;;5068106;28;20594;-77
2022/12/30 13:20:58;;;;;;;6.17;3.60;;;7.80;1.00;;;;;;5065912;28;20220;-79
2022/12/30 13:23:26;;;;;;;7.67;2.73;;;7.80;1.00;;;;;;5068443;28;20189;-77
2022/12/30 13:25:57;;;;;;;7.73;4.33;;;7.90;1.00;;;;;;5067117;28;20193;-78
2022/12/30 13:28:26;;;;;;;8.87;5.67;;;7.90;1.00;;;;;;5066859;28;20206;-79
2022/12/30 13:30:52;;;;;;;6.03;2.30;;;7.90;1.00;;;;;;5066974;28;20188;-78
2022/12/30 13:33:34;;;;;;;4.40;2.03;;;7.80;1.00;;;;;;5068152;28;20213;-77
2022/12/30 13:36:08;;;;;;;6.37;2.80;;;7.70;1.00;;;;;;5067136;28;20251;-78
2022/12/30 13:38:58;;;;;;;5.23;2.20;;;7.80;1.00;;;;;;5067936;28;20201;-79
2022/12/30 13:41:49;;;;;;;6.73;2.77;;;7.80;1.00;;;;;;5068860;28;20174;-78
2022/12/30 13:44:18;;;;;;;3.47;1.50;;;7.70;1.00;;;;;;5066705;28;20604;-79
2022/12/30 13:46:53;;;;;;;7.40;1.40;;;7.70;1.00;;;;;;5066783;28;20185;-79
2022/12/30 13:49:27;;;;;;;5.87;1.63;;;7.80;1.00;;;;;;5068331;28;20240;-77
2022/12/30 13:52:01;;;;;;;5.87;1.50;;;7.90;1.00;;;;;;5058144;28;20220;-77
2022/12/30 13:54:29;;;;;;;5.77;1.57;;;7.90;1.00;;;;;;5066733;28;20185;-78
2022/12/30 13:56:59;;;;;;;6.77;1.33;;;7.90;1.00;;;;;;5066720;28;20197;-77
2022/12/30 13:59:29;;;;;;;3.10;1.10;;;7.90;1.00;;;;;;5064211;28;20197;-77
2022/12/30 14:02:10;;;;;;;3.93;1.13;;;7.80;1.00;;;;;;5065503;28;20186;-80
2022/12/30 14:04:46;;;;;;;4.17;1.10;;;7.90;1.00;;;;;;5067239;28;20206;-78
2022/12/30 14:07:37;;;;;;;5.20;1.23;;;7.80;1.00;;;;;;5066693;28;20215;-77
2022/12/30 14:10:14;;;;;;;5.47;1.60;;;7.80;1.00;;;;;;5067565;28;20213;-79
2022/12/30 14:12:41;;;;;;;4.93;1.00;;;7.70;1.00;;;;;;5071389;28;20205;-79
2022/12/30 14:15:31;;;;;;;4.83;1.40;;;7.70;1.00;;;;;;5071021;28;20189;-80
2022/12/30 14:18:08;;;;;;;4.03;1.30;;;7.70;1.00;;;;;;5066298;28;20196;-79
2022/12/30 14:20:35;;;;;;;5.67;1.50;;;7.70;1.00;;;;;;5071845;28;20201;-78
2022/12/30 14:23:03;;;;;;;5.43;1.40;;;7.70;1.00;;;;;;5065005;28;20889;-78
2022/12/30 14:25:39;;;;;;;5.17;1.57;;;7.70;1.00;;;;;;5073937;28;20646;-79
2022/12/30 14:28:21;;;;;;;6.10;1.50;;;7.60;1.00;;;;;;5074287;28;20545;-80